Time;durP1;ratioP1;P1;durP2;ratioP2;P2;SDS_P1;SDS_P2;PMS_P1;PMS_P2;Temp;Humidity;BMP_temperature;BMP_pressure;BME280_temperature;BME280_humidity;BME280_pressure;Samples;Min_cycle;Max_cycle;Signal;HPM_P1;HPM_P2
2022/03/13 00:02:02;;;;;;;6.63;3.33;;;;;;;;;;5035310;28;20099;-79
2022/03/13 00:04:30;;;;;;;6.78;3.72;;;;;;;;;;5040253;28;20057;-82
2022/03/13 00:06:58;;;;;;;7.50;3.97;;;;;;;;;;5040629;28;20060;-80
2022/03/13 00:09:27;;;;;;;7.82;3.65;;;;;;;;;;5038061;28;20509;-79
2022/03/13 00:11:55;;;;;;;8.00;3.35;;;;;;;;;;5039991;28;20053;-80
2022/03/13 00:14:25;;;;;;;6.97;3.42;;;;;;;;;;5037811;28;20140;-80
2022/03/13 00:16:54;;;;;;;7.45;3.33;;;;;;;;;;5033799;28;20454;-81
2022/03/13 00:19:22;;;;;;;8.20;3.90;;;;;;;;;;5039681;28;20045;-81
2022/03/13 00:21:52;;;;;;;8.55;3.60;;;;;;;;;;5037061;28;20132;-81
2022/03/13 00:24:20;;;;;;;5.32;3.17;;;;;;;;;;5040294;28;20052;-80
2022/03/13 00:26:52;;;;;;;6.63;3.75;;;;;;;;;;5034708;28;20082;-80
2022/03/13 00:29:19;;;;;;;7.07;3.47;;;;;;;;;;5040536;28;20076;-80
2022/03/13 00:31:47;;;;;;;6.15;3.40;;;;;;;;;;5035386;28;20088;-82
2022/03/13 00:34:15;;;;;;;6.75;3.47;;;;;;;;;;5040095;28;20075;-82
2022/03/13 00:36:43;;;;;;;5.75;3.50;;;;;;;;;;5039376;28;20076;-80
2022/03/13 00:39:11;;;;;;;6.18;3.33;;;;;;;;;;5040515;28;20131;-80
2022/03/13 00:41:39;;;;;;;6.93;3.78;;;;;;;;;;5035916;28;20135;-80
2022/03/13 00:44:09;;;;;;;6.03;3.28;;;;;;;;;;5040557;28;20049;-80
2022/03/13 00:46:37;;;;;;;7.35;3.85;;;;;;;;;;5039089;28;20056;-80
2022/03/13 00:49:06;;;;;;;7.05;3.83;;;;;;;;;;5040091;28;20048;-80
2022/03/13 00:51:36;;;;;;;7.70;3.83;;;;;;;;;;5038328;28;20046;-81
2022/03/13 00:54:05;;;;;;;7.28;3.60;;;;;;;;;;5038437;28;20088;-81
2022/03/13 00:56:33;;;;;;;6.97;3.67;;;;;;;;;;5037901;28;20041;-80
2022/03/13 00:59:01;;;;;;;6.78;3.78;;;;;;;;;;5037658;28;20059;-81
2022/03/13 01:01:30;;;;;;;7.90;3.42;;;;;;;;;;5039420;28;20147;-79
2022/03/13 01:03:58;;;;;;;8.77;3.78;;;;;;;;;;5037069;28;20118;-81
2022/03/13 01:06:26;;;;;;;8.57;3.90;;;;;;;;;;5038023;28;20045;-79
2022/03/13 01:08:54;;;;;;;7.15;3.55;;;;;;;;;;5034185;28;20048;-72
2022/03/13 01:11:24;;;;;;;6.63;3.15;;;;;;;;;;5033930;28;20045;-72
2022/03/13 01:13:52;;;;;;;6.38;3.40;;;;;;;;;;5031951;28;20496;-73
2022/03/13 01:16:22;;;;;;;7.18;3.70;;;;;;;;;;5030861;28;20055;-72
2022/03/13 01:18:55;;;;;;;8.45;3.70;;;;;;;;;;5032573;28;20073;-72
2022/03/13 01:21:27;;;;;;;8.23;3.80;;;;;;;;;;5037465;28;20056;-72
2022/03/13 01:24:03;;;;;;;8.10;3.55;;;;;;;;;;5040198;28;20072;-72
2022/03/13 01:26:57;;;;;;;6.72;3.50;;;;;;;;;;5040586;28;20171;-72
2022/03/13 01:29:26;;;;;;;6.18;3.70;;;;;;;;;;5033011;28;20045;-72
2022/03/13 01:32:00;;;;;;;8.57;3.90;;;;;;;;;;5030341;28;20103;-73
2022/03/13 01:34:43;;;;;;;7.03;3.75;;;;;;;;;;5036560;28;20053;-81
2022/03/13 01:37:28;;;;;;;8.88;4.40;;;;;;;;;;5038519;28;20045;-82
2022/03/13 01:40:01;;;;;;;8.60;3.83;;;;;;;;;;5039172;28;20087;-73
2022/03/13 01:42:29;;;;;;;6.88;3.50;;;;;;;;;;5035799;28;20819;-73
2022/03/13 01:45:00;;;;;;;7.30;3.75;;;;;;;;;;5037634;28;20053;-73
2022/03/13 01:47:29;;;;;;;7.68;3.78;;;;;;;;;;5036028;28;20041;-73
2022/03/13 01:49:58;;;;;;;7.65;3.75;;;;;;;;;;5034877;28;20147;-73
2022/03/13 01:52:27;;;;;;;7.32;3.85;;;;;;;;;;5032125;28;20293;-73
2022/03/13 01:54:56;;;;;;;7.30;3.67;;;;;;;;;;5035895;28;20057;-73
2022/03/13 01:57:29;;;;;;;10.70;4.95;;;;;;;;;;5035998;28;20056;-73
2022/03/13 01:59:58;;;;;;;7.38;3.65;;;;;;;;;;5037118;28;20153;-73
2022/03/13 02:02:29;;;;;;;8.02;3.92;;;;;;;;;;5035154;28;20071;-82
2022/03/13 02:04:58;;;;;;;7.72;4.03;;;;;;;;;;5037484;28;20457;-80
2022/03/13 02:07:28;;;;;;;7.00;3.88;;;;;;;;;;5044160;28;20138;-80
2022/03/13 02:09:55;;;;;;;5.82;3.22;;;;;;;;;;5046578;28;20049;-81
2022/03/13 02:12:24;;;;;;;6.75;3.38;;;;;;;;;;5037867;28;20107;-81
2022/03/13 02:14:53;;;;;;;5.88;3.40;;;;;;;;;;5043201;28;20053;-81
2022/03/13 02:17:24;;;;;;;7.78;3.80;;;;;;;;;;5040294;28;20442;-80
2022/03/13 02:19:52;;;;;;;7.90;3.97;;;;;;;;;;5040187;28;20064;-79
2022/03/13 02:22:21;;;;;;;7.57;4.55;;;;;;;;;;5041273;28;20064;-80
2022/03/13 02:24:51;;;;;;;7.60;3.20;;;;;;;;;;5039314;28;20136;-80
2022/03/13 02:27:21;;;;;;;7.15;3.80;;;;;;;;;;5040134;28;20602;-81
2022/03/13 02:29:48;;;;;;;6.43;3.28;;;;;;;;;;5044833;28;20068;-81
2022/03/13 02:32:19;;;;;;;6.88;3.33;;;;;;;;;;5036398;28;20048;-80
2022/03/13 02:34:47;;;;;;;7.65;3.40;;;;;;;;;;5039753;28;20107;-80
2022/03/13 02:37:20;;;;;;;5.93;3.30;;;;;;;;;;5041461;28;20049;-80
2022/03/13 02:39:48;;;;;;;6.57;3.22;;;;;;;;;;5042103;28;20068;-82
2022/03/13 02:42:17;;;;;;;6.35;3.63;;;;;;;;;;5040957;28;20159;-81
2022/03/13 02:44:44;;;;;;;7.50;3.65;;;;;;;;;;5037160;28;20096;-80
2022/03/13 02:47:13;;;;;;;7.75;3.60;;;;;;;;;;5036318;28;20148;-79
2022/03/13 02:49:40;;;;;;;6.93;3.88;;;;;;;;;;5039183;28;20136;-80
2022/03/13 02:52:12;;;;;;;6.60;3.30;;;;;;;;;;5037425;28;20049;-81
2022/03/13 02:54:40;;;;;;;8.18;4.00;;;;;;;;;;5035899;28;20165;-81
2022/03/13 02:57:08;;;;;;;7.32;3.80;;;;;;;;;;5037040;28;20060;-80
2022/03/13 02:59:39;;;;;;;6.10;3.13;;;;;;;;;;5039262;28;20115;-82
2022/03/13 03:02:09;;;;;;;8.20;3.75;;;;;;;;;;5039723;28;20049;-72
2022/03/13 03:04:37;;;;;;;7.88;3.70;;;;;;;;;;5033323;28;20056;-72
2022/03/13 03:07:07;;;;;;;8.73;3.78;;;;;;;;;;5035124;28;20144;-72
2022/03/13 03:10:00;;;;;;;8.95;4.22;;;;;;;;;;5033484;28;20068;-73
2022/03/13 03:12:34;;;;;;;8.73;3.70;;;;;;;;;;5033737;28;20317;-72
2022/03/13 03:15:13;;;;;;;7.88;3.92;;;;;;;;;;5037842;28;20295;-72
2022/03/13 03:17:43;;;;;;;7.15;3.80;;;;;;;;;;5032521;28;20352;-71
2022/03/13 03:20:12;;;;;;;8.07;3.85;;;;;;;;;;5031565;28;20071;-71
2022/03/13 03:22:41;;;;;;;6.35;3.63;;;;;;;;;;5035396;28;20101;-72
2022/03/13 03:25:10;;;;;;;9.32;4.75;;;;;;;;;;5034949;28;20045;-74
2022/03/13 03:27:52;;;;;;;9.27;3.92;;;;;;;;;;5034188;28;20152;-71
2022/03/13 03:30:24;;;;;;;7.72;3.80;;;;;;;;;;5034172;28;20073;-72
2022/03/13 03:32:55;;;;;;;7.40;4.43;;;;;;;;;;5034511;28;20055;-72
2022/03/13 03:35:34;;;;;;;9.13;4.28;;;;;;;;;;5035396;28;20136;-72
2022/03/13 03:38:06;;;;;;;10.10;4.03;;;;;;;;;;5034120;28;20630;-72
2022/03/13 03:40:36;;;;;;;7.35;4.28;;;;;;;;;;5036041;28;20052;-82
2022/03/13 03:43:05;;;;;;;6.95;3.25;;;;;;;;;;5040527;28;20053;-80
2022/03/13 03:45:34;;;;;;;6.93;3.45;;;;;;;;;;5039336;28;20145;-80
2022/03/13 03:48:03;;;;;;;7.53;3.78;;;;;;;;;;5038038;28;20049;-78
2022/03/13 03:50:31;;;;;;;7.78;3.55;;;;;;;;;;5038567;28;20105;-80
2022/03/13 03:52:59;;;;;;;7.65;3.97;;;;;;;;;;5035013;28;20175;-80
2022/03/13 03:55:27;;;;;;;7.78;3.55;;;;;;;;;;5035745;28;20839;-79
2022/03/13 03:57:54;;;;;;;6.88;3.30;;;;;;;;;;5037434;28;20409;-78
2022/03/13 04:00:23;;;;;;;9.63;4.93;;;;;;;;;;5037218;28;20041;-81
2022/03/13 04:02:53;;;;;;;7.60;3.35;;;;;;;;;;5035444;28;20087;-82
2022/03/13 04:05:20;;;;;;;8.57;3.70;;;;;;;;;;5035443;28;20049;-79
2022/03/13 04:07:48;;;;;;;6.15;3.47;;;;;;;;;;5040182;28;20497;-80
2022/03/13 04:10:16;;;;;;;7.15;3.50;;;;;;;;;;5036391;28;20512;-80
2022/03/13 04:12:43;;;;;;;8.13;3.70;;;;;;;;;;5037205;28;20399;-82
2022/03/13 04:15:11;;;;;;;8.48;3.70;;;;;;;;;;5042436;28;20056;-80
2022/03/13 04:17:39;;;;;;;7.65;3.95;;;;;;;;;;5041292;28;20047;-80
2022/03/13 04:20:09;;;;;;;8.15;3.95;;;;;;;;;;5043190;28;20041;-82
2022/03/13 04:22:37;;;;;;;7.22;3.60;;;;;;;;;;5037101;28;20053;-80
2022/03/13 04:25:05;;;;;;;8.98;4.20;;;;;;;;;;5040428;28;20214;-80
2022/03/13 04:27:35;;;;;;;9.43;4.05;;;;;;;;;;5040122;28;20081;-80
2022/03/13 04:30:03;;;;;;;8.75;3.95;;;;;;;;;;5038686;28;20375;-81
2022/03/13 04:32:31;;;;;;;8.60;4.00;;;;;;;;;;5035681;28;20049;-80
2022/03/13 04:34:58;;;;;;;8.90;4.13;;;;;;;;;;5037994;28;20555;-81
2022/03/13 04:37:27;;;;;;;9.52;4.32;;;;;;;;;;5037612;28;20049;-81
2022/03/13 04:39:55;;;;;;;8.98;4.45;;;;;;;;;;5036347;28;20047;-80
2022/03/13 04:42:22;;;;;;;9.57;4.13;;;;;;;;;;5035027;28;20144;-81
2022/03/13 04:44:50;;;;;;;8.10;4.45;;;;;;;;;;5040962;28;20044;-82
2022/03/13 04:47:17;;;;;;;8.48;4.55;;;;;;;;;;5036304;28;20095;-81
2022/03/13 04:49:45;;;;;;;9.77;4.53;;;;;;;;;;5042503;28;20106;-80
2022/03/13 04:52:14;;;;;;;10.05;4.63;;;;;;;;;;5030156;28;20147;-80
2022/03/13 04:54:43;;;;;;;9.32;4.30;;;;;;;;;;5041260;28;20067;-80
2022/03/13 04:57:12;;;;;;;8.55;4.45;;;;;;;;;;5041110;28;20083;-81
2022/03/13 04:59:40;;;;;;;8.23;4.40;;;;;;;;;;5041806;28;20490;-81
2022/03/13 05:02:11;;;;;;;10.48;4.97;;;;;;;;;;5041728;28;20076;-81
2022/03/13 05:04:42;;;;;;;7.70;4.00;;;;;;;;;;5036861;28;20053;-82
2022/03/13 05:07:11;;;;;;;10.52;4.60;;;;;;;;;;5035618;28;20053;-81
2022/03/13 05:10:05;;;;;;;11.45;5.38;;;;;;;;;;5037146;28;20060;-80
2022/03/13 05:12:34;;;;;;;9.73;4.43;;;;;;;;;;5039636;28;20206;-81
2022/03/13 05:15:01;;;;;;;9.40;4.32;;;;;;;;;;5037243;28;20210;-81
2022/03/13 05:17:29;;;;;;;9.40;4.85;;;;;;;;;;5035346;28;20481;-81
2022/03/13 05:19:57;;;;;;;9.55;4.47;;;;;;;;;;5039324;28;20052;-81
2022/03/13 05:22:24;;;;;;;10.00;4.68;;;;;;;;;;5037619;28;20053;-80
2022/03/13 05:24:52;;;;;;;11.23;5.20;;;;;;;;;;5038754;28;20049;-80
2022/03/13 05:27:21;;;;;;;10.65;4.85;;;;;;;;;;5036305;28;20111;-81
2022/03/13 05:29:48;;;;;;;9.82;4.93;;;;;;;;;;5040242;28;20041;-80
2022/03/13 05:32:16;;;;;;;9.18;5.18;;;;;;;;;;5036405;28;20049;-81
2022/03/13 05:34:47;;;;;;;12.35;6.53;;;;;;;;;;5036248;28;20080;-82
2022/03/13 05:37:14;;;;;;;8.32;4.63;;;;;;;;;;5038576;28;20512;-81
2022/03/13 05:39:42;;;;;;;9.63;4.63;;;;;;;;;;5038356;28;20433;-82
2022/03/13 05:42:11;;;;;;;12.10;4.88;;;;;;;;;;5036551;28;20123;-81
2022/03/13 05:44:40;;;;;;;9.88;5.20;;;;;;;;;;5035451;28;20108;-81
2022/03/13 05:47:08;;;;;;;10.90;5.00;;;;;;;;;;5038122;28;20054;-81
2022/03/13 05:49:35;;;;;;;13.60;5.22;;;;;;;;;;5038380;28;20041;-81
2022/03/13 05:52:04;;;;;;;11.77;5.43;;;;;;;;;;5037337;28;20045;-82
2022/03/13 05:54:31;;;;;;;9.93;4.90;;;;;;;;;;5033958;28;20049;-81
2022/03/13 05:57:02;;;;;;;10.02;5.47;;;;;;;;;;5038026;28;20053;-81
2022/03/13 05:59:30;;;;;;;10.93;5.45;;;;;;;;;;5040981;28;20045;-81
2022/03/13 06:02:04;;;;;;;11.13;6.05;;;;;;;;;;5036406;28;20080;-81
2022/03/13 06:04:35;;;;;;;;;;;;;;;;;;5035847;28;20378;-72
2022/03/13 06:07:09;;;;;;;11.77;5.45;;;;;;;;;;5031269;28;19917;-73
2022/03/13 06:09:38;;;;;;;10.77;5.60;;;;;;;;;;5041162;28;20083;-73
2022/03/13 06:12:08;;;;;;;12.18;5.38;;;;;;;;;;5037917;28;20045;-73
2022/03/13 06:15:03;;;;;;;11.10;5.45;;;;;;;;;;5037146;28;20160;-72
2022/03/13 06:17:32;;;;;;;10.80;5.47;;;;;;;;;;5034581;28;20060;-73
2022/03/13 06:20:02;;;;;;;13.38;6.38;;;;;;;;;;5037724;28;20135;-73
2022/03/13 06:22:31;;;;;;;12.43;6.68;;;;;;;;;;5037186;28;20052;-73
2022/03/13 06:25:01;;;;;;;13.23;6.85;;;;;;;;;;5032872;28;20122;-72
2022/03/13 06:27:30;;;;;;;15.48;6.65;;;;;;;;;;5034947;28;20055;-73
2022/03/13 06:30:00;;;;;;;12.60;6.55;;;;;;;;;;5037909;28;20053;-72
2022/03/13 06:32:28;;;;;;;15.57;6.70;;;;;;;;;;5036524;28;20085;-72
2022/03/13 06:35:01;;;;;;;13.85;6.50;;;;;;;;;;5040322;28;20663;-80
2022/03/13 06:37:29;;;;;;;13.32;6.38;;;;;;;;;;5036573;28;20045;-71
2022/03/13 06:39:58;;;;;;;18.23;7.57;;;;;;;;;;5038129;28;20045;-81
2022/03/13 06:42:25;;;;;;;15.35;7.50;;;;;;;;;;5040535;28;20101;-80
2022/03/13 06:44:53;;;;;;;16.73;8.65;;;;;;;;;;5039752;28;20045;-80
2022/03/13 06:47:21;;;;;;;17.00;8.90;;;;;;;;;;5040000;28;20095;-81
2022/03/13 06:49:55;;;;;;;18.45;9.07;;;;;;;;;;5042224;28;20099;-72
2022/03/13 06:52:56;;;;;;;20.60;10.57;;;;;;;;;;5033458;28;20056;-73
2022/03/13 07:01:23;;;;;;;23.33;10.23;;;;;;;;;;5035796;28;20115;-70
2022/03/13 07:04:15;;;;;;;21.02;10.48;;;;;;;;;;5038387;28;20659;-82
2022/03/13 07:06:43;;;;;;;24.98;11.10;;;;;;;;;;5033657;28;20049;-82
2022/03/13 07:09:12;;;;;;;24.42;11.60;;;;;;;;;;5038656;28;20116;-81
2022/03/13 07:11:43;;;;;;;24.30;12.32;;;;;;;;;;5040369;28;20089;-80
2022/03/13 07:14:11;;;;;;;23.50;11.32;;;;;;;;;;5039110;28;20152;-80
2022/03/13 07:16:38;;;;;;;23.58;11.70;;;;;;;;;;5039685;28;20087;-79
2022/03/13 07:19:06;;;;;;;25.02;13.35;;;;;;;;;;5033070;28;20159;-79
2022/03/13 07:21:34;;;;;;;25.20;11.75;;;;;;;;;;5035962;28;20047;-79
2022/03/13 07:24:01;;;;;;;27.50;13.70;;;;;;;;;;5038885;28;20056;-78
2022/03/13 07:26:30;;;;;;;25.58;12.38;;;;;;;;;;5037664;28;20045;-79
2022/03/13 07:29:01;;;;;;;28.52;12.95;;;;;;;;;;5034355;28;20097;-79
2022/03/13 07:31:28;;;;;;;25.13;12.82;;;;;;;;;;5036232;28;20071;-81
2022/03/13 07:33:56;;;;;;;24.70;12.45;;;;;;;;;;5038281;28;20057;-79
2022/03/13 07:36:24;;;;;;;30.42;13.70;;;;;;;;;;5035090;28;20059;-79
2022/03/13 07:38:51;;;;;;;26.50;14.43;;;;;;;;;;5033484;28;20073;-80
2022/03/13 07:41:19;;;;;;;30.05;14.13;;;;;;;;;;5036699;28;20427;-80
2022/03/13 07:43:48;;;;;;;24.95;12.38;;;;;;;;;;5036909;28;20334;-79
2022/03/13 07:46:17;;;;;;;28.98;13.57;;;;;;;;;;5033685;28;20053;-79
2022/03/13 07:48:45;;;;;;;31.85;14.45;;;;;;;;;;5031128;28;20045;-78
2022/03/13 07:51:13;;;;;;;24.80;12.20;;;;;;;;;;5032531;28;20226;-78
2022/03/13 07:53:40;;;;;;;33.50;14.35;;;;;;;;;;5032213;28;20048;-78
2022/03/13 07:56:08;;;;;;;33.15;13.80;;;;;;;;;;5034337;28;20128;-78
2022/03/13 07:58:36;;;;;;;31.63;15.05;;;;;;;;;;5033749;28;20072;-77
2022/03/13 08:01:05;;;;;;;26.67;15.15;;;;;;;;;;5033373;28;20500;-72
2022/03/13 08:03:36;;;;;;;32.50;15.52;;;;;;;;;;5032547;28;20091;-72
2022/03/13 08:06:04;;;;;;;30.98;15.65;;;;;;;;;;5036448;28;20049;-71
2022/03/13 08:08:35;;;;;;;31.50;15.07;;;;;;;;;;5034109;28;20149;-72
2022/03/13 08:11:03;;;;;;;24.73;13.07;;;;;;;;;;5034524;28;20113;-71
2022/03/13 08:13:31;;;;;;;32.45;15.15;;;;;;;;;;5034001;28;20056;-72
2022/03/13 08:16:00;;;;;;;35.38;15.45;;;;;;;;;;5034601;28;20888;-72
2022/03/13 08:18:29;;;;;;;32.03;15.95;;;;;;;;;;5031610;28;20053;-71
2022/03/13 08:20:57;;;;;;;35.17;15.63;;;;;;;;;;5031463;28;20096;-71
2022/03/13 08:23:25;;;;;;;34.80;15.30;;;;;;;;;;5031120;28;20077;-77
2022/03/13 08:25:52;;;;;;;32.55;15.48;;;;;;;;;;5032082;28;20077;-77
2022/03/13 08:28:20;;;;;;;31.38;14.98;;;;;;;;;;5032540;28;20127;-79
2022/03/13 08:30:48;;;;;;;31.85;15.43;;;;;;;;;;5033954;28;20076;-77
2022/03/13 08:33:15;;;;;;;30.60;14.88;;;;;;;;;;5035584;28;20057;-77
2022/03/13 08:36:08;;;;;;;29.35;14.65;;;;;;;;;;5038282;28;20236;-76
2022/03/13 08:38:36;;;;;;;32.90;16.48;;;;;;;;;;5033736;28;20087;-77
2022/03/13 08:41:03;;;;;;;32.50;16.58;;;;;;;;;;5035410;28;20365;-77
2022/03/13 08:43:31;;;;;;;33.60;16.48;;;;;;;;;;5032030;28;20055;-77
2022/03/13 08:46:00;;;;;;;37.25;16.15;;;;;;;;;;5030200;28;20097;-77
2022/03/13 08:48:28;;;;;;;31.75;15.93;;;;;;;;;;5032171;28;20053;-77
2022/03/13 08:50:56;;;;;;;33.00;15.85;;;;;;;;;;5034580;28;20049;-77
2022/03/13 08:53:25;;;;;;;32.42;16.58;;;;;;;;;;5030168;28;20056;-77
2022/03/13 08:55:53;;;;;;;35.15;17.75;;;;;;;;;;5036908;28;20310;-76
2022/03/13 08:58:20;;;;;;;32.72;15.90;;;;;;;;;;5036091;28;20639;-77
2022/03/13 09:00:52;;;;;;;35.38;16.75;;;;;;;;;;5036582;28;20045;-77
2022/03/13 09:03:20;;;;;;;33.00;14.38;;;;;;;;;;5036524;28;20129;-77
2022/03/13 09:05:49;;;;;;;31.70;16.77;;;;;;;;;;5033360;28;20053;-77
2022/03/13 09:08:17;;;;;;;33.40;16.95;;;;;;;;;;5040079;28;20107;-77
2022/03/13 09:10:46;;;;;;;38.03;17.20;;;;;;;;;;5034577;28;20045;-77
2022/03/13 09:13:14;;;;;;;33.25;16.00;;;;;;;;;;5036491;28;20087;-78
2022/03/13 09:16:06;;;;;;;33.97;15.48;;;;;;;;;;5037134;28;20651;-78
2022/03/13 09:18:34;;;;;;;36.15;16.33;;;;;;;;;;5035456;28;20049;-79
2022/03/13 09:21:01;;;;;;;31.90;16.42;;;;;;;;;;5037914;28;20092;-79
2022/03/13 09:23:30;;;;;;;31.95;14.30;;;;;;;;;;5034924;28;20146;-79
2022/03/13 09:25:59;;;;;;;34.97;16.30;;;;;;;;;;5038550;28;20056;-78
2022/03/13 09:28:29;;;;;;;30.88;15.07;;;;;;;;;;5033341;28;20619;-80
2022/03/13 09:30:58;;;;;;;29.08;15.57;;;;;;;;;;5030304;28;20533;-80
2022/03/13 09:33:27;;;;;;;31.27;15.00;;;;;;;;;;5032365;28;20048;-77
2022/03/13 09:35:55;;;;;;;35.58;16.85;;;;;;;;;;5033326;28;20136;-77
2022/03/13 09:38:22;;;;;;;30.38;17.27;;;;;;;;;;5037862;28;20049;-79
2022/03/13 09:40:50;;;;;;;26.77;15.40;;;;;;;;;;5032737;28;20489;-79
2022/03/13 09:43:20;;;;;;;30.58;15.90;;;;;;;;;;5039592;28;20057;-77
2022/03/13 09:45:48;;;;;;;26.70;14.20;;;;;;;;;;5039919;28;20057;-79
2022/03/13 09:48:21;;;;;;;30.17;14.40;;;;;;;;;;5030393;28;20049;-73
2022/03/13 09:50:49;;;;;;;29.45;14.48;;;;;;;;;;5039683;28;20041;-73
2022/03/13 09:53:17;;;;;;;31.40;13.45;;;;;;;;;;5029439;28;20052;-72
2022/03/13 09:55:48;;;;;;;25.85;13.88;;;;;;;;;;5037834;28;20088;-73
2022/03/13 09:58:16;;;;;;;27.00;14.20;;;;;;;;;;5038086;28;20457;-79
2022/03/13 10:00:46;;;;;;;29.00;14.95;;;;;;;;;;5040808;28;20045;-73
2022/03/13 10:03:14;;;;;;;27.95;14.02;;;;;;;;;;5032768;28;20055;-71
2022/03/13 10:05:42;;;;;;;24.67;12.60;;;;;;;;;;5040293;28;20106;-71
2022/03/13 10:08:10;;;;;;;25.17;13.07;;;;;;;;;;5032855;28;20495;-72
2022/03/13 10:10:45;;;;;;;25.77;13.63;;;;;;;;;;5038214;28;20643;-72
2022/03/13 10:13:33;;;;;;;24.52;12.63;;;;;;;;;;5032739;28;20470;-72
2022/03/13 10:16:05;;;;;;;22.77;12.48;;;;;;;;;;5035730;28;20389;-72
2022/03/13 10:18:36;;;;;;;22.50;12.50;;;;;;;;;;5035915;28;20069;-72
2022/03/13 10:21:11;;;;;;;25.00;12.90;;;;;;;;;;5036319;28;20157;-72
2022/03/13 10:23:39;;;;;;;22.90;12.30;;;;;;;;;;5038563;28;20061;-81
2022/03/13 10:26:07;;;;;;;25.88;13.68;;;;;;;;;;5039049;28;20053;-80
2022/03/13 10:28:37;;;;;;;27.40;13.40;;;;;;;;;;5039984;28;20123;-72
2022/03/13 10:31:15;;;;;;;22.83;11.82;;;;;;;;;;5035555;28;20501;-79
2022/03/13 10:34:06;;;;;;;21.48;11.63;;;;;;;;;;5035117;28;20061;-80
2022/03/13 10:36:35;;;;;;;23.75;12.75;;;;;;;;;;5038158;28;20242;-79
2022/03/13 10:39:04;;;;;;;28.10;14.68;;;;;;;;;;5035805;28;20071;-79
2022/03/13 10:41:43;;;;;;;25.33;12.52;;;;;;;;;;5036926;28;20051;-79
2022/03/13 10:44:17;;;;;;;22.83;12.80;;;;;;;;;;5037009;28;20128;-79
2022/03/13 10:46:52;;;;;;;23.63;12.02;;;;;;;;;;5037761;28;20197;-79
2022/03/13 10:49:31;;;;;;;23.13;12.65;;;;;;;;;;5039091;28;20136;-80
2022/03/13 10:52:01;;;;;;;21.35;12.00;;;;;;;;;;5036035;28;20138;-79
2022/03/13 10:54:29;;;;;;;20.35;10.85;;;;;;;;;;5030945;28;20143;-79
2022/03/13 10:57:07;;;;;;;19.10;11.00;;;;;;;;;;5038389;28;20085;-78
2022/03/13 10:59:35;;;;;;;22.75;11.70;;;;;;;;;;5036005;28;20045;-79
2022/03/13 11:02:14;;;;;;;21.75;11.40;;;;;;;;;;5037475;28;20059;-78
2022/03/13 11:04:52;;;;;;;20.30;10.43;;;;;;;;;;5035032;28;20225;-79
2022/03/13 11:07:21;;;;;;;16.60;8.60;;;;;;;;;;5037503;28;20057;-79
2022/03/13 11:13:48;;;;;;;18.35;9.60;;;;;;;;;;5035676;28;20100;-71
2022/03/13 11:23:08;;;;;;;15.63;8.25;;;;;;;;;;5034555;28;20045;-70
2022/03/13 11:25:58;;;;;;;20.85;9.50;;;;;;;;;;5000882;28;20071;-71
2022/03/13 11:28:35;;;;;;;16.77;9.32;;;;;;;;;;5029325;28;20536;-71
2022/03/13 11:31:49;;;;;;;19.57;9.60;;;;;;;;;;5031667;28;20477;-71
2022/03/13 11:37:30;;;;;;;16.65;8.20;;;;;;;;;;5032507;28;20457;-70
2022/03/13 11:48:40;;;;;;;17.63;8.13;;;;;;;;;;5035029;28;20053;-70
2022/03/13 11:51:37;;;;;;;16.25;7.15;;;;;;;;;;5032980;28;20080;-70
2022/03/13 11:57:22;;;;;;;13.88;7.05;;;;;;;;;;5033556;28;20148;-80
2022/03/13 12:00:38;;;;;;;15.27;7.35;;;;;;;;;;5029725;28;20087;-70
2022/03/13 12:16:55;;;;;;;14.50;6.72;;;;;;;;;;5036885;28;20586;-71
2022/03/13 12:19:47;;;;;;;13.30;6.72;;;;;;;;;;5036121;28;20428;-72
2022/03/13 12:22:18;;;;;;;13.45;6.30;;;;;;;;;;5032864;28;20124;-72
2022/03/13 12:24:53;;;;;;;12.57;6.38;;;;;;;;;;5040392;28;20049;-71
2022/03/13 12:27:28;;;;;;;10.68;6.00;;;;;;;;;;5033102;28;20056;-71
2022/03/13 12:29:59;;;;;;;12.73;6.18;;;;;;;;;;5034977;28;20123;-80
2022/03/13 12:32:34;;;;;;;14.30;7.30;;;;;;;;;;5037968;28;20041;-79
2022/03/13 12:35:04;;;;;;;13.30;7.53;;;;;;;;;;5041018;28;20450;-80
2022/03/13 12:37:57;;;;;;;14.02;7.10;;;;;;;;;;5033372;28;20500;-81
2022/03/13 12:40:25;;;;;;;11.48;6.55;;;;;;;;;;5035667;28;20045;-80
2022/03/13 12:42:53;;;;;;;13.90;7.25;;;;;;;;;;5033137;28;20053;-81
2022/03/13 12:45:22;;;;;;;12.70;5.97;;;;;;;;;;5036997;28;20049;-81
2022/03/13 12:47:55;;;;;;;11.88;6.22;;;;;;;;;;5034079;28;20576;-80
2022/03/13 12:50:25;;;;;;;13.00;6.75;;;;;;;;;;5034650;28;20049;-79
2022/03/13 12:52:57;;;;;;;12.80;6.63;;;;;;;;;;5033632;28;20076;-80
2022/03/13 12:55:25;;;;;;;12.10;6.82;;;;;;;;;;5035874;28;20087;-79
2022/03/13 12:57:54;;;;;;;14.85;8.38;;;;;;;;;;5033823;28;20049;-80
2022/03/13 13:00:31;;;;;;;13.05;6.85;;;;;;;;;;5037506;28;20091;-79
2022/03/13 13:03:00;;;;;;;13.45;5.90;;;;;;;;;;5032913;28;20056;-78
2022/03/13 13:05:30;;;;;;;11.90;5.72;;;;;;;;;;5032377;28;20535;-78
2022/03/13 13:07:57;;;;;;;11.23;5.93;;;;;;;;;;5034102;28;20139;-78
2022/03/13 13:10:25;;;;;;;14.43;6.28;;;;;;;;;;5032218;28;20097;-77
2022/03/13 13:12:53;;;;;;;12.88;6.03;;;;;;;;;;5035935;28;20056;-77
2022/03/13 13:15:23;;;;;;;10.32;5.38;;;;;;;;;;5037702;28;20136;-77
2022/03/13 13:18:22;;;;;;;9.63;4.80;;;;;;;;;;5033822;28;20159;-77
2022/03/13 13:21:08;;;;;;;12.80;5.85;;;;;;;;;;5037375;28;20056;-78
2022/03/13 13:23:40;;;;;;;13.60;6.15;;;;;;;;;;5039386;28;20053;-78
2022/03/13 13:26:08;;;;;;;12.30;6.65;;;;;;;;;;5037652;28;20049;-78
2022/03/13 13:28:36;;;;;;;12.00;6.05;;;;;;;;;;5039069;28;20084;-78
2022/03/13 13:31:03;;;;;;;12.38;6.25;;;;;;;;;;5037647;28;20572;-76
2022/03/13 13:33:32;;;;;;;12.93;5.95;;;;;;;;;;5038635;28;20061;-79
2022/03/13 13:36:02;;;;;;;9.57;5.50;;;;;;;;;;5038265;28;20163;-80
2022/03/13 13:38:31;;;;;;;10.18;5.20;;;;;;;;;;5034470;28;20049;-73
2022/03/13 13:41:03;;;;;;;10.40;4.78;;;;;;;;;;5036922;28;20056;-74
2022/03/13 13:43:32;;;;;;;10.85;6.00;;;;;;;;;;5038281;28;20601;-73
2022/03/13 13:46:02;;;;;;;9.10;4.80;;;;;;;;;;5038132;28;20040;-70
2022/03/13 13:48:30;;;;;;;8.38;4.75;;;;;;;;;;5040732;28;20080;-79
2022/03/13 13:51:19;;;;;;;9.45;4.88;;;;;;;;;;5036209;28;20061;-77
2022/03/13 13:53:55;;;;;;;9.82;5.55;;;;;;;;;;5035422;28;20053;-77
2022/03/13 13:56:24;;;;;;;9.45;5.20;;;;;;;;;;5039118;28;20076;-80
2022/03/13 13:58:52;;;;;;;10.50;5.25;;;;;;;;;;5040021;28;20151;-79
2022/03/13 14:01:20;;;;;;;9.38;4.75;;;;;;;;;;5033559;28;20069;-79
2022/03/13 14:03:50;;;;;;;9.10;5.30;;;;;;;;;;5034710;28;20045;-79
2022/03/13 14:06:19;;;;;;;10.55;5.68;;;;;;;;;;5037282;28;20050;-79
2022/03/13 14:08:47;;;;;;;10.00;4.50;;;;;;;;;;5037080;28;20064;-78
2022/03/13 14:11:18;;;;;;;8.45;4.50;;;;;;;;;;5037147;28;20091;-78
2022/03/13 14:13:45;;;;;;;9.02;4.43;;;;;;;;;;5035252;28;20048;-79
2022/03/13 14:16:14;;;;;;;10.20;5.60;;;;;;;;;;5038491;28;20060;-79
2022/03/13 14:18:42;;;;;;;8.82;4.18;;;;;;;;;;5034139;28;20172;-78
2022/03/13 14:21:10;;;;;;;8.80;4.55;;;;;;;;;;5035487;28;20057;-77
2022/03/13 14:23:38;;;;;;;8.95;4.75;;;;;;;;;;5035102;28;20064;-79
2022/03/13 14:26:05;;;;;;;10.10;4.68;;;;;;;;;;5033563;28;20049;-79
2022/03/13 14:28:35;;;;;;;8.75;4.32;;;;;;;;;;5032600;28;20084;-79
2022/03/13 14:31:03;;;;;;;7.70;4.15;;;;;;;;;;5035878;28;20053;-78
2022/03/13 14:33:31;;;;;;;6.90;3.50;;;;;;;;;;5033823;28;20473;-78
2022/03/13 14:35:59;;;;;;;9.00;4.30;;;;;;;;;;5037543;28;20061;-80
2022/03/13 14:38:27;;;;;;;8.57;4.22;;;;;;;;;;5036243;28;20049;-78
2022/03/13 14:40:55;;;;;;;8.95;4.18;;;;;;;;;;5036173;28;20070;-78
2022/03/13 14:43:23;;;;;;;7.53;3.67;;;;;;;;;;5041444;28;20136;-78
2022/03/13 14:45:53;;;;;;;6.45;3.55;;;;;;;;;;5039379;28;20144;-77
2022/03/13 14:48:22;;;;;;;5.35;3.05;;;;;;;;;;5038890;28;20131;-78
2022/03/13 14:50:51;;;;;;;6.03;3.00;;;;;;;;;;5043857;28;20049;-77
2022/03/13 14:53:20;;;;;;;5.40;2.75;;;;;;;;;;5033130;28;20053;-78
2022/03/13 14:55:48;;;;;;;5.22;2.60;;;;;;;;;;5036698;28;20053;-78
2022/03/13 14:58:16;;;;;;;4.90;2.65;;;;;;;;;;5036267;28;20087;-77
2022/03/13 15:00:46;;;;;;;5.43;2.70;;;;;;;;;;5040896;28;20128;-71
2022/03/13 15:03:15;;;;;;;5.72;2.72;;;;;;;;;;5037984;28;20052;-71
2022/03/13 15:05:43;;;;;;;5.88;2.92;;;;;;;;;;5036530;28;20158;-71
2022/03/13 15:08:12;;;;;;;5.78;3.33;;;;;;;;;;5037417;28;20056;-71
2022/03/13 15:10:40;;;;;;;6.50;3.40;;;;;;;;;;5035118;28;20546;-71
2022/03/13 15:13:15;;;;;;;6.15;3.22;;;;;;;;;;5038161;28;20123;-71
2022/03/13 15:15:44;;;;;;;6.15;3.08;;;;;;;;;;5033858;28;20129;-72
2022/03/13 15:18:12;;;;;;;6.70;3.22;;;;;;;;;;5034885;28;20385;-72
2022/03/13 15:20:42;;;;;;;6.35;3.72;;;;;;;;;;5038755;28;20049;-71
2022/03/13 15:23:10;;;;;;;6.15;2.85;;;;;;;;;;5036054;28;20041;-71
2022/03/13 15:25:38;;;;;;;5.45;3.13;;;;;;;;;;5029887;28;20123;-71
2022/03/13 15:28:06;;;;;;;7.35;3.75;;;;;;;;;;5037393;28;20128;-71
2022/03/13 15:30:34;;;;;;;6.80;3.55;;;;;;;;;;5031182;28;20761;-71
2022/03/13 15:33:02;;;;;;;5.65;3.00;;;;;;;;;;5031624;28;20164;-72
2022/03/13 15:35:29;;;;;;;6.70;3.10;;;;;;;;;;5035810;28;20098;-70
2022/03/13 15:37:58;;;;;;;6.15;2.72;;;;;;;;;;5035622;28;20463;-71
2022/03/13 15:40:26;;;;;;;4.72;3.00;;;;;;;;;;5032134;28;20056;-71